You are listening to:
KPWT CTAF - Bremerton, Washington, United States

KPWT 240556Z AUTO 03003KT 2 1/2SM BR OVC002 03/03 A3033 RMK AO2 SLP276 T00280028 10039 20028 58002

If stream doesn't start automatically press the play button
If stream stops then reload player then press play